sensor_id;sensor_type;location;lat;lon;timestamp;P1;durP1;ratioP1;P2;durP2;ratioP2
19812;SDS011;10066;48.108;11.448;2022-09-28T00:01:06;2.20;;;0.60;;
19812;SDS011;10066;48.108;11.448;2022-09-28T00:03:34;0.77;;;0.50;;
19812;SDS011;10066;48.108;11.448;2022-09-28T00:06:01;1.43;;;0.60;;
19812;SDS011;10066;48.108;11.448;2022-09-28T00:08:29;0.40;;;0.40;;
19812;SDS011;10066;48.108;11.448;2022-09-28T00:10:57;1.07;;;0.40;;
19812;SDS011;10066;48.108;11.448;2022-09-28T00:13:26;0.87;;;0.47;;
19812;SDS011;10066;48.108;11.448;2022-09-28T00:16:00;0.43;;;0.30;;
19812;SDS011;10066;48.108;11.448;2022-09-28T00:18:28;2.20;;;0.40;;
19812;SDS011;10066;48.108;11.448;2022-09-28T00:21:00;0.97;;;0.40;;
19812;SDS011;10066;48.108;11.448;2022-09-28T00:23:28;1.30;;;0.50;;
19812;SDS011;10066;48.108;11.448;2022-09-28T00:25:59;1.23;;;0.40;;
19812;SDS011;10066;48.108;11.448;2022-09-28T00:28:28;0.90;;;0.50;;
19812;SDS011;10066;48.108;11.448;2022-09-28T00:30:56;0.40;;;0.40;;
19812;SDS011;10066;48.108;11.448;2022-09-28T00:33:24;1.00;;;0.60;;
19812;SDS011;10066;48.108;11.448;2022-09-28T00:35:55;1.63;;;0.50;;
19812;SDS011;10066;48.108;11.448;2022-09-28T00:38:24;0.93;;;0.50;;
19812;SDS011;10066;48.108;11.448;2022-09-28T00:40:52;0.40;;;0.37;;
19812;SDS011;10066;48.108;11.448;2022-09-28T00:43:21;2.30;;;0.60;;
19812;SDS011;10066;48.108;11.448;2022-09-28T00:45:52;0.57;;;0.40;;
19812;SDS011;10066;48.108;11.448;2022-09-28T00:48:23;0.40;;;0.40;;
19812;SDS011;10066;48.108;11.448;2022-09-28T00:50:54;0.87;;;0.43;;
19812;SDS011;10066;48.108;11.448;2022-09-28T00:53:22;0.73;;;0.37;;
19812;SDS011;10066;48.108;11.448;2022-09-28T00:55:52;1.40;;;0.40;;
19812;SDS011;10066;48.108;11.448;2022-09-28T00:58:22;0.50;;;0.30;;
19812;SDS011;10066;48.108;11.448;2022-09-28T01:00:54;0.50;;;0.30;;
19812;SDS011;10066;48.108;11.448;2022-09-28T01:03:23;0.37;;;0.30;;
19812;SDS011;10066;48.108;11.448;2022-09-28T01:05:50;1.20;;;0.50;;
19812;SDS011;10066;48.108;11.448;2022-09-28T01:08:19;0.73;;;0.37;;
19812;SDS011;10066;48.108;11.448;2022-09-28T01:10:47;1.20;;;0.30;;
19812;SDS011;10066;48.108;11.448;2022-09-28T01:13:15;0.77;;;0.30;;
19812;SDS011;10066;48.108;11.448;2022-09-28T01:15:46;0.90;;;0.43;;
19812;SDS011;10066;48.108;11.448;2022-09-28T01:18:24;1.37;;;0.40;;
19812;SDS011;10066;48.108;11.448;2022-09-28T01:20:59;1.07;;;0.40;;
19812;SDS011;10066;48.108;11.448;2022-09-28T01:23:36;1.53;;;0.40;;
19812;SDS011;10066;48.108;11.448;2022-09-28T01:26:44;1.17;;;0.40;;
19812;SDS011;10066;48.108;11.448;2022-09-28T01:29:30;1.67;;;0.40;;
19812;SDS011;10066;48.108;11.448;2022-09-28T01:32:08;1.23;;;0.60;;
19812;SDS011;10066;48.108;11.448;2022-09-28T01:34:42;1.03;;;0.33;;
19812;SDS011;10066;48.108;11.448;2022-09-28T01:37:13;2.20;;;0.40;;
19812;SDS011;10066;48.108;11.448;2022-09-28T01:39:46;1.60;;;0.40;;
19812;SDS011;10066;48.108;11.448;2022-09-28T01:42:18;1.10;;;0.50;;
19812;SDS011;10066;48.108;11.448;2022-09-28T01:44:48;0.93;;;0.47;;
19812;SDS011;10066;48.108;11.448;2022-09-28T01:47:19;1.00;;;0.50;;
19812;SDS011;10066;48.108;11.448;2022-09-28T01:49:49;3.50;;;0.40;;
19812;SDS011;10066;48.108;11.448;2022-09-28T01:52:21;0.97;;;0.40;;
19812;SDS011;10066;48.108;11.448;2022-09-28T01:54:53;1.07;;;0.40;;
19812;SDS011;10066;48.108;11.448;2022-09-28T01:57:25;3.00;;;0.60;;
19812;SDS011;10066;48.108;11.448;2022-09-28T02:00:00;1.13;;;0.40;;
19812;SDS011;10066;48.108;11.448;2022-09-28T02:02:30;2.43;;;0.37;;
19812;SDS011;10066;48.108;11.448;2022-09-28T02:05:03;0.97;;;0.30;;
19812;SDS011;10066;48.108;11.448;2022-09-28T02:07:33;0.90;;;0.40;;
19812;SDS011;10066;48.108;11.448;2022-09-28T02:10:05;0.63;;;0.30;;
19812;SDS011;10066;48.108;11.448;2022-09-28T02:12:38;0.40;;;0.30;;
19812;SDS011;10066;48.108;11.448;2022-09-28T02:15:09;1.23;;;0.30;;
19812;SDS011;10066;48.108;11.448;2022-09-28T02:17:41;2.37;;;0.40;;
19812;SDS011;10066;48.108;11.448;2022-09-28T02:20:09;1.23;;;0.40;;
19812;SDS011;10066;48.108;11.448;2022-09-28T02:22:37;1.00;;;0.40;;
19812;SDS011;10066;48.108;11.448;2022-09-28T02:25:09;0.40;;;0.40;;
19812;SDS011;10066;48.108;11.448;2022-09-28T02:27:44;1.50;;;0.50;;
19812;SDS011;10066;48.108;11.448;2022-09-28T02:30:18;0.20;;;0.20;;
19812;SDS011;10066;48.108;11.448;2022-09-28T02:32:46;2.63;;;0.50;;
19812;SDS011;10066;48.108;11.448;2022-09-28T02:35:18;1.10;;;0.30;;
19812;SDS011;10066;48.108;11.448;2022-09-28T02:37:45;0.70;;;0.40;;
19812;SDS011;10066;48.108;11.448;2022-09-28T02:40:13;1.83;;;0.30;;
19812;SDS011;10066;48.108;11.448;2022-09-28T02:42:45;1.70;;;0.30;;
19812;SDS011;10066;48.108;11.448;2022-09-28T02:45:25;1.63;;;0.30;;
19812;SDS011;10066;48.108;11.448;2022-09-28T02:48:05;2.87;;;0.50;;
19812;SDS011;10066;48.108;11.448;2022-09-28T02:50:42;3.73;;;0.50;;
19812;SDS011;10066;48.108;11.448;2022-09-28T02:53:19;2.53;;;0.57;;
19812;SDS011;10066;48.108;11.448;2022-09-28T02:56:01;1.07;;;0.40;;
19812;SDS011;10066;48.108;11.448;2022-09-28T02:58:40;1.23;;;0.63;;
19812;SDS011;10066;48.108;11.448;2022-09-28T03:01:20;1.60;;;0.40;;
19812;SDS011;10066;48.108;11.448;2022-09-28T03:03:53;0.80;;;0.43;;
19812;SDS011;10066;48.108;11.448;2022-09-28T03:06:28;0.70;;;0.30;;
19812;SDS011;10066;48.108;11.448;2022-09-28T03:08:59;0.53;;;0.30;;
19812;SDS011;10066;48.108;11.448;2022-09-28T03:11:31;2.17;;;0.50;;
19812;SDS011;10066;48.108;11.448;2022-09-28T03:14:03;0.90;;;0.40;;
19812;SDS011;10066;48.108;11.448;2022-09-28T03:16:31;1.17;;;0.40;;
19812;SDS011;10066;48.108;11.448;2022-09-28T03:18:58;0.50;;;0.30;;
19812;SDS011;10066;48.108;11.448;2022-09-28T03:21:25;1.67;;;0.40;;
19812;SDS011;10066;48.108;11.448;2022-09-28T03:23:52;0.27;;;0.27;;
19812;SDS011;10066;48.108;11.448;2022-09-28T03:26:19;1.60;;;0.40;;
19812;SDS011;10066;48.108;11.448;2022-09-28T03:28:46;2.23;;;0.57;;
19812;SDS011;10066;48.108;11.448;2022-09-28T03:31:15;1.10;;;0.30;;
19812;SDS011;10066;48.108;11.448;2022-09-28T03:33:42;1.23;;;0.40;;
19812;SDS011;10066;48.108;11.448;2022-09-28T03:36:09;1.50;;;0.40;;
19812;SDS011;10066;48.108;11.448;2022-09-28T03:38:36;1.37;;;0.30;;
19812;SDS011;10066;48.108;11.448;2022-09-28T03:41:03;2.20;;;0.50;;
19812;SDS011;10066;48.108;11.448;2022-09-28T03:43:31;0.73;;;0.40;;
19812;SDS011;10066;48.108;11.448;2022-09-28T03:45:59;0.83;;;0.30;;
19812;SDS011;10066;48.108;11.448;2022-09-28T03:48:28;0.57;;;0.33;;
19812;SDS011;10066;48.108;11.448;2022-09-28T03:50:57;1.10;;;0.40;;
19812;SDS011;10066;48.108;11.448;2022-09-28T03:53:26;1.53;;;0.37;;
19812;SDS011;10066;48.108;11.448;2022-09-28T03:55:54;0.77;;;0.40;;
19812;SDS011;10066;48.108;11.448;2022-09-28T03:58:22;1.30;;;0.40;;
19812;SDS011;10066;48.108;11.448;2022-09-28T04:00:49;1.03;;;0.30;;
19812;SDS011;10066;48.108;11.448;2022-09-28T04:03:16;0.40;;;0.20;;
19812;SDS011;10066;48.108;11.448;2022-09-28T04:05:51;2.00;;;0.30;;
19812;SDS011;10066;48.108;11.448;2022-09-28T04:08:18;0.37;;;0.30;;
19812;SDS011;10066;48.108;11.448;2022-09-28T04:10:45;1.00;;;0.40;;
19812;SDS011;10066;48.108;11.448;2022-09-28T04:13:13;0.30;;;0.30;;
19812;SDS011;10066;48.108;11.448;2022-09-28T04:15:40;0.30;;;0.30;;
19812;SDS011;10066;48.108;11.448;2022-09-28T04:18:08;0.33;;;0.30;;
19812;SDS011;10066;48.108;11.448;2022-09-28T04:20:36;1.40;;;0.20;;
19812;SDS011;10066;48.108;11.448;2022-09-28T04:23:06;1.70;;;0.40;;
19812;SDS011;10066;48.108;11.448;2022-09-28T04:25:34;1.47;;;0.30;;
19812;SDS011;10066;48.108;11.448;2022-09-28T04:28:01;0.43;;;0.33;;
19812;SDS011;10066;48.108;11.448;2022-09-28T04:30:45;0.57;;;0.30;;
19812;SDS011;10066;48.108;11.448;2022-09-28T04:33:12;2.10;;;0.30;;
19812;SDS011;10066;48.108;11.448;2022-09-28T04:35:42;0.50;;;0.40;;
19812;SDS011;10066;48.108;11.448;2022-09-28T04:38:12;1.20;;;0.40;;
19812;SDS011;10066;48.108;11.448;2022-09-28T04:40:39;2.43;;;0.60;;
19812;SDS011;10066;48.108;11.448;2022-09-28T04:43:06;1.50;;;0.43;;
19812;SDS011;10066;48.108;11.448;2022-09-28T04:45:35;0.33;;;0.30;;
19812;SDS011;10066;48.108;11.448;2022-09-28T04:48:04;1.80;;;0.30;;
19812;SDS011;10066;48.108;11.448;2022-09-28T04:50:32;1.37;;;0.37;;
19812;SDS011;10066;48.108;11.448;2022-09-28T04:52:59;0.30;;;0.30;;
19812;SDS011;10066;48.108;11.448;2022-09-28T04:55:28;0.47;;;0.30;;
19812;SDS011;10066;48.108;11.448;2022-09-28T04:57:57;1.57;;;0.40;;
19812;SDS011;10066;48.108;11.448;2022-09-28T05:00:27;0.50;;;0.40;;
19812;SDS011;10066;48.108;11.448;2022-09-28T05:02:57;1.80;;;0.30;;
19812;SDS011;10066;48.108;11.448;2022-09-28T05:05:24;3.33;;;0.50;;
19812;SDS011;10066;48.108;11.448;2022-09-28T05:07:51;0.90;;;0.30;;
19812;SDS011;10066;48.108;11.448;2022-09-28T05:10:22;0.60;;;0.30;;
19812;SDS011;10066;48.108;11.448;2022-09-28T05:12:50;0.53;;;0.40;;
19812;SDS011;10066;48.108;11.448;2022-09-28T05:15:17;0.77;;;0.50;;
19812;SDS011;10066;48.108;11.448;2022-09-28T05:17:44;0.90;;;0.60;;
19812;SDS011;10066;48.108;11.448;2022-09-28T05:20:11;2.27;;;0.63;;
19812;SDS011;10066;48.108;11.448;2022-09-28T05:22:38;0.77;;;0.73;;
19812;SDS011;10066;48.108;11.448;2022-09-28T05:25:06;2.00;;;1.73;;
19812;SDS011;10066;48.108;11.448;2022-09-28T05:27:34;2.37;;;2.17;;
19812;SDS011;10066;48.108;11.448;2022-09-28T05:30:02;4.90;;;1.50;;
19812;SDS011;10066;48.108;11.448;2022-09-28T05:32:30;1.47;;;0.80;;
19812;SDS011;10066;48.108;11.448;2022-09-28T05:34:57;1.03;;;0.50;;
19812;SDS011;10066;48.108;11.448;2022-09-28T05:37:25;0.40;;;0.40;;
19812;SDS011;10066;48.108;11.448;2022-09-28T05:39:52;0.47;;;0.47;;
19812;SDS011;10066;48.108;11.448;2022-09-28T05:42:19;2.60;;;0.37;;
19812;SDS011;10066;48.108;11.448;2022-09-28T05:44:46;0.60;;;0.40;;
19812;SDS011;10066;48.108;11.448;2022-09-28T05:47:14;2.23;;;0.73;;
19812;SDS011;10066;48.108;11.448;2022-09-28T05:49:43;0.70;;;0.40;;
19812;SDS011;10066;48.108;11.448;2022-09-28T05:52:10;0.70;;;0.40;;
19812;SDS011;10066;48.108;11.448;2022-09-28T05:54:37;1.27;;;0.70;;
19812;SDS011;10066;48.108;11.448;2022-09-28T05:57:04;2.40;;;0.60;;
19812;SDS011;10066;48.108;11.448;2022-09-28T05:59:31;2.67;;;0.67;;
19812;SDS011;10066;48.108;11.448;2022-09-28T06:02:00;2.63;;;0.60;;
19812;SDS011;10066;48.108;11.448;2022-09-28T06:04:28;1.90;;;0.60;;
19812;SDS011;10066;48.108;11.448;2022-09-28T06:06:55;2.10;;;0.60;;
19812;SDS011;10066;48.108;11.448;2022-09-28T06:09:22;2.17;;;0.57;;
19812;SDS011;10066;48.108;11.448;2022-09-28T06:11:49;2.40;;;0.60;;
19812;SDS011;10066;48.108;11.448;2022-09-28T06:14:17;1.47;;;0.67;;
19812;SDS011;10066;48.108;11.448;2022-09-28T06:16:44;0.90;;;0.60;;
19812;SDS011;10066;48.108;11.448;2022-09-28T06:19:11;3.07;;;0.70;;
19812;SDS011;10066;48.108;11.448;2022-09-28T06:21:39;2.10;;;0.40;;
19812;SDS011;10066;48.108;11.448;2022-09-28T06:24:06;2.37;;;0.40;;
19812;SDS011;10066;48.108;11.448;2022-09-28T06:26:33;0.80;;;0.57;;
19812;SDS011;10066;48.108;11.448;2022-09-28T06:29:00;0.70;;;0.47;;
19812;SDS011;10066;48.108;11.448;2022-09-28T06:31:28;0.90;;;0.50;;
19812;SDS011;10066;48.108;11.448;2022-09-28T06:33:55;1.27;;;0.60;;
19812;SDS011;10066;48.108;11.448;2022-09-28T06:36:26;1.03;;;0.53;;
19812;SDS011;10066;48.108;11.448;2022-09-28T06:38:56;1.03;;;0.50;;
19812;SDS011;10066;48.108;11.448;2022-09-28T06:41:23;1.37;;;0.60;;
19812;SDS011;10066;48.108;11.448;2022-09-28T06:43:50;2.00;;;0.50;;
19812;SDS011;10066;48.108;11.448;2022-09-28T06:46:17;3.03;;;0.70;;
19812;SDS011;10066;48.108;11.448;2022-09-28T06:48:44;1.43;;;0.40;;
19812;SDS011;10066;48.108;11.448;2022-09-28T06:51:11;1.40;;;0.60;;
19812;SDS011;10066;48.108;11.448;2022-09-28T06:53:39;8.30;;;0.83;;
19812;SDS011;10066;48.108;11.448;2022-09-28T06:56:08;0.63;;;0.60;;
19812;SDS011;10066;48.108;11.448;2022-09-28T06:58:36;1.53;;;0.50;;
19812;SDS011;10066;48.108;11.448;2022-09-28T07:01:03;1.50;;;0.93;;
19812;SDS011;10066;48.108;11.448;2022-09-28T07:03:30;0.47;;;0.33;;
19812;SDS011;10066;48.108;11.448;2022-09-28T07:05:57;2.20;;;0.60;;
19812;SDS011;10066;48.108;11.448;2022-09-28T07:08:25;1.60;;;0.60;;
19812;SDS011;10066;48.108;11.448;2022-09-28T07:10:53;1.07;;;0.50;;
19812;SDS011;10066;48.108;11.448;2022-09-28T07:13:22;2.37;;;0.53;;
19812;SDS011;10066;48.108;11.448;2022-09-28T07:15:52;1.17;;;0.40;;
19812;SDS011;10066;48.108;11.448;2022-09-28T07:18:20;2.43;;;0.53;;
19812;SDS011;10066;48.108;11.448;2022-09-28T07:20:48;0.87;;;0.53;;
19812;SDS011;10066;48.108;11.448;2022-09-28T07:23:15;1.03;;;0.50;;
19812;SDS011;10066;48.108;11.448;2022-09-28T07:25:43;0.73;;;0.40;;
19812;SDS011;10066;48.108;11.448;2022-09-28T07:28:11;1.80;;;0.50;;
19812;SDS011;10066;48.108;11.448;2022-09-28T07:30:40;2.30;;;0.50;;
19812;SDS011;10066;48.108;11.448;2022-09-28T07:33:08;0.97;;;0.60;;
19812;SDS011;10066;48.108;11.448;2022-09-28T07:35:38;2.10;;;0.53;;
19812;SDS011;10066;48.108;11.448;2022-09-28T07:38:07;0.60;;;0.47;;
19812;SDS011;10066;48.108;11.448;2022-09-28T07:40:36;0.63;;;0.60;;
19812;SDS011;10066;48.108;11.448;2022-09-28T07:43:20;1.00;;;0.60;;
19812;SDS011;10066;48.108;11.448;2022-09-28T07:45:50;1.80;;;0.87;;
19812;SDS011;10066;48.108;11.448;2022-09-28T07:48:19;1.07;;;0.60;;
19812;SDS011;10066;48.108;11.448;2022-09-28T07:50:47;1.13;;;0.60;;
19812;SDS011;10066;48.108;11.448;2022-09-28T07:53:15;1.10;;;0.60;;
19812;SDS011;10066;48.108;11.448;2022-09-28T07:55:43;3.07;;;0.70;;
19812;SDS011;10066;48.108;11.448;2022-09-28T07:58:15;0.97;;;0.50;;
19812;SDS011;10066;48.108;11.448;2022-09-28T08:00:43;0.80;;;0.60;;
19812;SDS011;10066;48.108;11.448;2022-09-28T08:03:13;1.37;;;0.80;;
19812;SDS011;10066;48.108;11.448;2022-09-28T08:05:41;2.40;;;0.80;;
19812;SDS011;10066;48.108;11.448;2022-09-28T08:08:10;0.90;;;0.60;;
19812;SDS011;10066;48.108;11.448;2022-09-28T08:10:38;0.50;;;0.43;;
19812;SDS011;10066;48.108;11.448;2022-09-28T08:13:06;1.00;;;0.47;;
19812;SDS011;10066;48.108;11.448;2022-09-28T08:15:33;2.07;;;0.50;;
19812;SDS011;10066;48.108;11.448;2022-09-28T08:18:02;0.83;;;0.67;;
19812;SDS011;10066;48.108;11.448;2022-09-28T08:20:31;3.33;;;0.50;;
19812;SDS011;10066;48.108;11.448;2022-09-28T08:23:16;0.50;;;0.43;;
19812;SDS011;10066;48.108;11.448;2022-09-28T08:25:47;0.60;;;0.40;;
19812;SDS011;10066;48.108;11.448;2022-09-28T08:28:16;0.73;;;0.40;;
19812;SDS011;10066;48.108;11.448;2022-09-28T08:30:43;1.70;;;0.63;;
19812;SDS011;10066;48.108;11.448;2022-09-28T08:33:11;1.73;;;0.40;;
19812;SDS011;10066;48.108;11.448;2022-09-28T08:35:39;0.60;;;0.53;;
19812;SDS011;10066;48.108;11.448;2022-09-28T08:38:07;0.87;;;0.60;;
19812;SDS011;10066;48.108;11.448;2022-09-28T08:40:36;0.90;;;0.50;;
19812;SDS011;10066;48.108;11.448;2022-09-28T08:43:14;1.57;;;0.60;;
19812;SDS011;10066;48.108;11.448;2022-09-28T08:45:49;1.50;;;0.60;;
19812;SDS011;10066;48.108;11.448;2022-09-28T08:48:18;0.67;;;0.40;;
19812;SDS011;10066;48.108;11.448;2022-09-28T08:51:11;1.77;;;0.60;;
19812;SDS011;10066;48.108;11.448;2022-09-28T08:53:44;1.03;;;0.60;;
19812;SDS011;10066;48.108;11.448;2022-09-28T08:56:21;1.30;;;0.67;;
19812;SDS011;10066;48.108;11.448;2022-09-28T08:58:55;1.40;;;0.60;;
19812;SDS011;10066;48.108;11.448;2022-09-28T09:01:25;1.23;;;0.60;;
19812;SDS011;10066;48.108;11.448;2022-09-28T09:03:57;1.20;;;0.60;;
19812;SDS011;10066;48.108;11.448;2022-09-28T09:06:28;1.30;;;0.60;;
19812;SDS011;10066;48.108;11.448;2022-09-28T09:09:07;0.77;;;0.53;;
19812;SDS011;10066;48.108;11.448;2022-09-28T09:11:44;0.57;;;0.53;;
19812;SDS011;10066;48.108;11.448;2022-09-28T09:17:22;0.77;;;0.40;;
19812;SDS011;10066;48.108;11.448;2022-09-28T09:20:00;0.57;;;0.40;;
19812;SDS011;10066;48.108;11.448;2022-09-28T09:22:39;0.77;;;0.40;;
19812;SDS011;10066;48.108;11.448;2022-09-28T09:25:16;2.93;;;0.70;;
19812;SDS011;10066;48.108;11.448;2022-09-28T09:27:55;0.40;;;0.30;;
19812;SDS011;10066;48.108;11.448;2022-09-28T09:30:34;0.97;;;0.40;;
19812;SDS011;10066;48.108;11.448;2022-09-28T09:33:14;1.53;;;0.50;;
19812;SDS011;10066;48.108;11.448;2022-09-28T09:36:00;0.60;;;0.40;;
19812;SDS011;10066;48.108;11.448;2022-09-28T09:38:43;1.80;;;0.60;;
19812;SDS011;10066;48.108;11.448;2022-09-28T09:41:15;2.43;;;0.67;;
19812;SDS011;10066;48.108;11.448;2022-09-28T09:46:45;2.27;;;0.60;;
19812;SDS011;10066;48.108;11.448;2022-09-28T09:49:17;1.70;;;0.50;;
19812;SDS011;10066;48.108;11.448;2022-09-28T09:51:47;1.03;;;0.33;;
19812;SDS011;10066;48.108;11.448;2022-09-28T09:54:22;1.30;;;0.50;;
19812;SDS011;10066;48.108;11.448;2022-09-28T09:56:54;1.07;;;0.50;;
19812;SDS011;10066;48.108;11.448;2022-09-28T09:59:26;0.90;;;0.37;;
19812;SDS011;10066;48.108;11.448;2022-09-28T10:01:57;3.50;;;0.60;;
19812;SDS011;10066;48.108;11.448;2022-09-28T10:04:27;0.70;;;0.50;;
19812;SDS011;10066;48.108;11.448;2022-09-28T10:06:58;0.70;;;0.40;;
19812;SDS011;10066;48.108;11.448;2022-09-28T10:09:33;0.80;;;0.50;;
19812;SDS011;10066;48.108;11.448;2022-09-28T10:12:07;0.97;;;0.67;;
19812;SDS011;10066;48.108;11.448;2022-09-28T10:14:36;2.33;;;1.00;;
19812;SDS011;10066;48.108;11.448;2022-09-28T10:17:03;1.10;;;0.70;;
19812;SDS011;10066;48.108;11.448;2022-09-28T10:19:31;1.90;;;0.80;;
19812;SDS011;10066;48.108;11.448;2022-09-28T10:21:59;1.77;;;0.70;;
19812;SDS011;10066;48.108;11.448;2022-09-28T10:24:30;2.00;;;0.70;;
19812;SDS011;10066;48.108;11.448;2022-09-28T10:27:03;2.60;;;0.90;;
19812;SDS011;10066;48.108;11.448;2022-09-28T10:29:36;0.70;;;0.70;;
19812;SDS011;10066;48.108;11.448;2022-09-28T10:32:20;1.37;;;0.90;;
19812;SDS011;10066;48.108;11.448;2022-09-28T10:34:49;1.67;;;0.90;;
19812;SDS011;10066;48.108;11.448;2022-09-28T10:37:19;2.70;;;0.83;;
19812;SDS011;10066;48.108;11.448;2022-09-28T10:39:50;1.33;;;0.83;;
19812;SDS011;10066;48.108;11.448;2022-09-28T10:42:19;3.10;;;0.80;;
19812;SDS011;10066;48.108;11.448;2022-09-28T10:44:52;4.03;;;1.13;;
19812;SDS011;10066;48.108;11.448;2022-09-28T10:47:22;2.00;;;1.00;;
19812;SDS011;10066;48.108;11.448;2022-09-28T10:49:52;2.50;;;0.70;;
19812;SDS011;10066;48.108;11.448;2022-09-28T10:55:36;1.17;;;0.80;;
19812;SDS011;10066;48.108;11.448;2022-09-28T10:58:18;1.67;;;0.70;;
19812;SDS011;10066;48.108;11.448;2022-09-28T11:00:57;1.73;;;0.80;;
19812;SDS011;10066;48.108;11.448;2022-09-28T11:03:26;1.53;;;0.80;;
19812;SDS011;10066;48.108;11.448;2022-09-28T11:05:55;1.97;;;0.90;;
19812;SDS011;10066;48.108;11.448;2022-09-28T11:08:26;3.23;;;0.90;;
19812;SDS011;10066;48.108;11.448;2022-09-28T11:11:04;1.67;;;0.90;;
19812;SDS011;10066;48.108;11.448;2022-09-28T11:13:38;1.03;;;0.70;;
19812;SDS011;10066;48.108;11.448;2022-09-28T11:16:08;1.20;;;0.80;;
19812;SDS011;10066;48.108;11.448;2022-09-28T11:18:45;1.57;;;1.20;;
19812;SDS011;10066;48.108;11.448;2022-09-28T11:21:13;2.53;;;0.80;;
19812;SDS011;10066;48.108;11.448;2022-09-28T11:23:41;1.20;;;0.70;;
19812;SDS011;10066;48.108;11.448;2022-09-28T11:26:23;3.47;;;1.00;;
19812;SDS011;10066;48.108;11.448;2022-09-28T11:28:51;1.70;;;0.87;;
19812;SDS011;10066;48.108;11.448;2022-09-28T11:31:23;1.40;;;0.90;;
19812;SDS011;10066;48.108;11.448;2022-09-28T11:34:00;1.70;;;0.80;;
19812;SDS011;10066;48.108;11.448;2022-09-28T11:36:33;2.47;;;1.03;;
19812;SDS011;10066;48.108;11.448;2022-09-28T11:39:15;2.57;;;1.00;;
19812;SDS011;10066;48.108;11.448;2022-09-28T11:41:56;2.07;;;1.13;;
19812;SDS011;10066;48.108;11.448;2022-09-28T11:44:38;2.70;;;0.90;;
19812;SDS011;10066;48.108;11.448;2022-09-28T11:47:13;2.63;;;1.20;;
19812;SDS011;10066;48.108;11.448;2022-09-28T11:50:00;2.77;;;1.30;;
19812;SDS011;10066;48.108;11.448;2022-09-28T11:52:32;2.53;;;1.20;;
19812;SDS011;10066;48.108;11.448;2022-09-28T11:55:09;2.87;;;1.30;;
19812;SDS011;10066;48.108;11.448;2022-09-28T11:57:44;2.17;;;1.10;;
19812;SDS011;10066;48.108;11.448;2022-09-28T12:00:17;3.83;;;1.23;;
19812;SDS011;10066;48.108;11.448;2022-09-28T12:02:48;1.30;;;1.00;;
19812;SDS011;10066;48.108;11.448;2022-09-28T12:05:20;1.63;;;0.97;;
19812;SDS011;10066;48.108;11.448;2022-09-28T12:07:50;1.33;;;1.00;;
19812;SDS011;10066;48.108;11.448;2022-09-28T12:10:24;1.97;;;1.23;;
19812;SDS011;10066;48.108;11.448;2022-09-28T12:13:02;1.67;;;0.97;;
19812;SDS011;10066;48.108;11.448;2022-09-28T12:15:39;3.00;;;1.00;;
19812;SDS011;10066;48.108;11.448;2022-09-28T12:18:11;2.20;;;1.30;;
19812;SDS011;10066;48.108;11.448;2022-09-28T12:20:44;2.17;;;1.17;;
19812;SDS011;10066;48.108;11.448;2022-09-28T12:23:14;2.60;;;1.40;;
19812;SDS011;10066;48.108;11.448;2022-09-28T12:25:47;2.17;;;1.07;;
19812;SDS011;10066;48.108;11.448;2022-09-28T12:28:23;1.80;;;1.07;;
19812;SDS011;10066;48.108;11.448;2022-09-28T12:30:56;2.80;;;1.00;;
19812;SDS011;10066;48.108;11.448;2022-09-28T12:33:32;1.87;;;1.10;;
19812;SDS011;10066;48.108;11.448;2022-09-28T12:36:01;3.10;;;1.00;;
19812;SDS011;10066;48.108;11.448;2022-09-28T12:38:42;3.83;;;1.40;;
19812;SDS011;10066;48.108;11.448;2022-09-28T12:41:22;3.63;;;1.00;;
19812;SDS011;10066;48.108;11.448;2022-09-28T12:44:01;1.20;;;0.90;;
19812;SDS011;10066;48.108;11.448;2022-09-28T12:49:46;1.43;;;0.87;;
19812;SDS011;10066;48.108;11.448;2022-09-28T12:52:25;3.27;;;1.03;;
19812;SDS011;10066;48.108;11.448;2022-09-28T12:55:02;3.17;;;1.10;;
19812;SDS011;10066;48.108;11.448;2022-09-28T12:57:46;2.70;;;0.90;;
19812;SDS011;10066;48.108;11.448;2022-09-28T13:00:23;1.97;;;1.10;;
19812;SDS011;10066;48.108;11.448;2022-09-28T13:08:57;1.93;;;1.10;;
19812;SDS011;10066;48.108;11.448;2022-09-28T13:11:31;2.13;;;1.43;;
19812;SDS011;10066;48.108;11.448;2022-09-28T13:14:13;2.57;;;1.10;;
19812;SDS011;10066;48.108;11.448;2022-09-28T13:16:54;1.73;;;0.80;;
19812;SDS011;10066;48.108;11.448;2022-09-28T13:19:29;3.23;;;0.90;;
19812;SDS011;10066;48.108;11.448;2022-09-28T13:22:07;2.57;;;1.00;;
19812;SDS011;10066;48.108;11.448;2022-09-28T13:24:43;2.17;;;0.90;;
19812;SDS011;10066;48.108;11.448;2022-09-28T13:27:14;1.53;;;0.70;;
19812;SDS011;10066;48.108;11.448;2022-09-28T13:29:44;1.40;;;0.90;;
19812;SDS011;10066;48.108;11.448;2022-09-28T13:32:15;3.70;;;1.03;;
19812;SDS011;10066;48.108;11.448;2022-09-28T13:34:45;3.47;;;1.27;;
19812;SDS011;10066;48.108;11.448;2022-09-28T13:37:21;2.50;;;1.33;;
19812;SDS011;10066;48.108;11.448;2022-09-28T13:39:50;4.07;;;1.40;;
19812;SDS011;10066;48.108;11.448;2022-09-28T13:45:25;2.40;;;1.20;;
19812;SDS011;10066;48.108;11.448;2022-09-28T13:48:08;1.80;;;0.83;;
19812;SDS011;10066;48.108;11.448;2022-09-28T13:50:45;1.87;;;0.70;;
19812;SDS011;10066;48.108;11.448;2022-09-28T13:53:29;2.73;;;1.00;;
19812;SDS011;10066;48.108;11.448;2022-09-28T13:56:16;3.47;;;1.23;;
19812;SDS011;10066;48.108;11.448;2022-09-28T13:58:50;1.40;;;0.83;;
19812;SDS011;10066;48.108;11.448;2022-09-28T14:01:24;1.17;;;1.00;;
19812;SDS011;10066;48.108;11.448;2022-09-28T14:04:08;3.57;;;1.03;;
19812;SDS011;10066;48.108;11.448;2022-09-28T14:06:40;2.53;;;1.30;;
19812;SDS011;10066;48.108;11.448;2022-09-28T14:15:38;2.70;;;1.30;;
19812;SDS011;10066;48.108;11.448;2022-09-28T14:18:09;4.57;;;1.20;;
19812;SDS011;10066;48.108;11.448;2022-09-28T14:23:55;4.13;;;1.20;;
19812;SDS011;10066;48.108;11.448;2022-09-28T14:26:47;2.13;;;1.10;;
19812;SDS011;10066;48.108;11.448;2022-09-28T14:29:29;4.77;;;1.40;;
19812;SDS011;10066;48.108;11.448;2022-09-28T14:32:03;1.87;;;1.20;;
19812;SDS011;10066;48.108;11.448;2022-09-28T14:34:46;4.43;;;1.20;;
19812;SDS011;10066;48.108;11.448;2022-09-28T14:37:26;2.50;;;1.00;;
19812;SDS011;10066;48.108;11.448;2022-09-28T14:40:17;2.57;;;1.27;;
19812;SDS011;10066;48.108;11.448;2022-09-28T14:43:19;4.47;;;1.30;;
19812;SDS011;10066;48.108;11.448;2022-09-28T14:52:09;2.83;;;1.50;;
19812;SDS011;10066;48.108;11.448;2022-09-28T14:57:24;4.13;;;1.50;;
19812;SDS011;10066;48.108;11.448;2022-09-28T14:59:54;3.37;;;1.50;;
19812;SDS011;10066;48.108;11.448;2022-09-28T15:02:25;3.77;;;1.50;;
19812;SDS011;10066;48.108;11.448;2022-09-28T15:04:58;4.63;;;1.50;;
19812;SDS011;10066;48.108;11.448;2022-09-28T15:07:44;3.53;;;1.40;;
19812;SDS011;10066;48.108;11.448;2022-09-28T15:10:20;3.90;;;1.57;;
19812;SDS011;10066;48.108;11.448;2022-09-28T15:12:50;5.03;;;1.63;;
19812;SDS011;10066;48.108;11.448;2022-09-28T15:15:23;4.90;;;1.97;;
19812;SDS011;10066;48.108;11.448;2022-09-28T15:18:19;2.93;;;1.47;;
19812;SDS011;10066;48.108;11.448;2022-09-28T15:21:00;3.77;;;1.83;;
19812;SDS011;10066;48.108;11.448;2022-09-28T15:23:32;3.27;;;1.90;;
19812;SDS011;10066;48.108;11.448;2022-09-28T15:26:02;5.13;;;1.87;;
19812;SDS011;10066;48.108;11.448;2022-09-28T15:28:32;4.17;;;2.10;;
19812;SDS011;10066;48.108;11.448;2022-09-28T15:31:01;6.73;;;2.23;;
19812;SDS011;10066;48.108;11.448;2022-09-28T15:33:30;4.23;;;2.10;;
19812;SDS011;10066;48.108;11.448;2022-09-28T15:36:16;3.50;;;2.03;;
19812;SDS011;10066;48.108;11.448;2022-09-28T15:38:50;3.00;;;2.00;;
19812;SDS011;10066;48.108;11.448;2022-09-28T15:41:22;2.83;;;1.57;;